sensor_id;sensor_type;location;lat;lon;timestamp;pressure;altitude;pressure_sealevel;temperature;humidity
74327;BME280;62745;51.060;13.786;2023-09-12T00:00:48;99817.50;;;18.03;100.00
74327;BME280;62745;51.060;13.786;2023-09-12T00:03:13;99814.75;;;17.98;100.00
74327;BME280;62745;51.060;13.786;2023-09-12T00:05:39;99818.63;;;17.86;100.00
74327;BME280;62745;51.060;13.786;2023-09-12T00:08:04;99809.31;;;17.77;100.00
74327;BME280;62745;51.060;13.786;2023-09-12T00:10:30;99824.97;;;17.74;100.00
74327;BME280;62745;51.060;13.786;2023-09-12T00:12:55;99820.22;;;17.65;100.00
74327;BME280;62745;51.060;13.786;2023-09-12T00:15:21;99821.19;;;17.59;100.00
74327;BME280;62745;51.060;13.786;2023-09-12T00:17:47;99820.31;;;17.53;100.00
74327;BME280;62745;51.060;13.786;2023-09-12T00:20:14;99820.81;;;17.50;100.00
74327;BME280;62745;51.060;13.786;2023-09-12T00:22:39;99821.88;;;17.49;100.00
74327;BME280;62745;51.060;13.786;2023-09-12T00:25:05;99824.72;;;17.59;100.00
74327;BME280;62745;51.060;13.786;2023-09-12T00:27:30;99821.94;;;17.54;100.00
74327;BME280;62745;51.060;13.786;2023-09-12T00:29:55;99827.03;;;17.51;100.00
74327;BME280;62745;51.060;13.786;2023-09-12T00:32:21;99818.84;;;17.45;100.00
74327;BME280;62745;51.060;13.786;2023-09-12T00:34:46;99815.81;;;17.42;100.00
74327;BME280;62745;51.060;13.786;2023-09-12T00:37:11;99815.66;;;17.49;100.00
74327;BME280;62745;51.060;13.786;2023-09-12T00:39:37;99818.38;;;17.49;100.00
74327;BME280;62745;51.060;13.786;2023-09-12T00:42:02;99813.44;;;17.45;100.00
74327;BME280;62745;51.060;13.786;2023-09-12T00:44:28;99813.63;;;17.39;100.00
74327;BME280;62745;51.060;13.786;2023-09-12T00:46:54;99815.75;;;17.37;100.00
74327;BME280;62745;51.060;13.786;2023-09-12T00:49:20;99811.97;;;17.38;100.00
74327;BME280;62745;51.060;13.786;2023-09-12T00:51:49;99815.75;;;17.37;100.00
74327;BME280;62745;51.060;13.786;2023-09-12T00:54:15;99815.91;;;17.47;100.00
74327;BME280;62745;51.060;13.786;2023-09-12T00:56:41;99822.13;;;17.48;100.00
74327;BME280;62745;51.060;13.786;2023-09-12T00:59:07;99818.69;;;17.52;100.00
74327;BME280;62745;51.060;13.786;2023-09-12T01:01:34;99818.94;;;17.51;100.00
74327;BME280;62745;51.060;13.786;2023-09-12T01:04:00;99824.97;;;17.41;100.00
74327;BME280;62745;51.060;13.786;2023-09-12T02:13:39;99844.91;;;16.73;100.00
74327;BME280;62745;51.060;13.786;2023-09-12T02:16:04;99826.28;;;16.60;100.00
74327;BME280;62745;51.060;13.786;2023-09-12T02:18:29;99830.22;;;16.52;100.00
74327;BME280;62745;51.060;13.786;2023-09-12T02:20:55;99837.25;;;16.53;100.00
74327;BME280;62745;51.060;13.786;2023-09-12T02:23:21;99838.78;;;16.49;100.00
74327;BME280;62745;51.060;13.786;2023-09-12T02:25:46;99834.09;;;16.44;100.00
74327;BME280;62745;51.060;13.786;2023-09-12T02:28:11;99838.56;;;16.39;100.00
74327;BME280;62745;51.060;13.786;2023-09-12T02:30:40;99841.31;;;16.55;100.00
74327;BME280;62745;51.060;13.786;2023-09-12T02:33:05;99833.03;;;16.45;100.00
74327;BME280;62745;51.060;13.786;2023-09-12T02:35:31;99842.09;;;16.39;100.00
74327;BME280;62745;51.060;13.786;2023-09-12T02:37:56;99838.97;;;16.31;100.00
74327;BME280;62745;51.060;13.786;2023-09-12T02:40:22;99843.34;;;16.48;100.00
74327;BME280;62745;51.060;13.786;2023-09-12T02:42:47;99849.56;;;16.49;100.00
74327;BME280;62745;51.060;13.786;2023-09-12T02:45:12;99845.47;;;16.46;100.00
74327;BME280;62745;51.060;13.786;2023-09-12T02:47:37;99845.03;;;16.38;100.00
74327;BME280;62745;51.060;13.786;2023-09-12T02:50:09;99839.13;;;16.52;100.00
74327;BME280;62745;51.060;13.786;2023-09-12T02:52:36;99841.41;;;16.61;100.00
74327;BME280;62745;51.060;13.786;2023-09-12T02:55:01;99844.59;;;16.58;100.00
74327;BME280;62745;51.060;13.786;2023-09-12T02:57:27;99844.22;;;16.66;100.00
74327;BME280;62745;51.060;13.786;2023-09-12T02:59:52;99837.00;;;16.54;100.00
74327;BME280;62745;51.060;13.786;2023-09-12T03:02:18;99843.13;;;16.50;100.00
74327;BME280;62745;51.060;13.786;2023-09-12T03:04:43;99842.13;;;16.56;100.00
74327;BME280;62745;51.060;13.786;2023-09-12T03:07:08;99845.97;;;16.60;100.00
74327;BME280;62745;51.060;13.786;2023-09-12T03:09:34;99842.94;;;16.68;100.00
74327;BME280;62745;51.060;13.786;2023-09-12T03:12:01;99837.00;;;16.54;100.00
74327;BME280;62745;51.060;13.786;2023-09-12T03:14:27;99843.69;;;16.52;100.00
74327;BME280;62745;51.060;13.786;2023-09-12T03:16:53;99841.03;;;16.40;100.00
74327;BME280;62745;51.060;13.786;2023-09-12T03:19:18;99836.38;;;16.36;100.00
74327;BME280;62745;51.060;13.786;2023-09-12T03:21:44;99836.69;;;16.39;100.00
74327;BME280;62745;51.060;13.786;2023-09-12T03:24:09;99823.50;;;16.26;100.00
74327;BME280;62745;51.060;13.786;2023-09-12T03:26:35;99834.84;;;16.28;100.00
74327;BME280;62745;51.060;13.786;2023-09-12T03:29:01;99832.28;;;16.33;100.00
74327;BME280;62745;51.060;13.786;2023-09-12T03:31:27;99827.97;;;16.20;100.00
74327;BME280;62745;51.060;13.786;2023-09-12T03:33:54;99831.50;;;16.21;100.00
74327;BME280;62745;51.060;13.786;2023-09-12T03:36:19;99832.09;;;16.11;100.00
74327;BME280;62745;51.060;13.786;2023-09-12T03:38:44;99829.78;;;16.03;100.00
74327;BME280;62745;51.060;13.786;2023-09-12T03:41:10;99825.13;;;15.99;100.00
74327;BME280;62745;51.060;13.786;2023-09-12T03:43:36;99831.31;;;15.99;100.00
74327;BME280;62745;51.060;13.786;2023-09-12T03:46:01;99827.81;;;15.99;100.00
74327;BME280;62745;51.060;13.786;2023-09-12T03:51:50;99814.38;;;15.75;100.00
74327;BME280;62745;51.060;13.786;2023-09-12T03:54:16;99823.94;;;15.94;100.00
74327;BME280;62745;51.060;13.786;2023-09-12T03:56:41;99828.06;;;15.97;100.00
74327;BME280;62745;51.060;13.786;2023-09-12T03:59:06;99822.06;;;15.95;100.00
74327;BME280;62745;51.060;13.786;2023-09-12T04:01:32;99830.13;;;15.95;100.00
74327;BME280;62745;51.060;13.786;2023-09-12T04:03:57;99832.34;;;16.10;100.00
74327;BME280;62745;51.060;13.786;2023-09-12T04:06:22;99834.72;;;15.94;100.00
74327;BME280;62745;51.060;13.786;2023-09-12T04:08:47;99838.59;;;15.87;100.00
74327;BME280;62745;51.060;13.786;2023-09-12T04:11:13;99837.09;;;15.79;100.00
74327;BME280;62745;51.060;13.786;2023-09-12T04:13:38;99829.94;;;15.73;100.00
74327;BME280;62745;51.060;13.786;2023-09-12T04:16:04;99822.56;;;15.57;100.00
74327;BME280;62745;51.060;13.786;2023-09-12T04:18:29;99821.63;;;15.51;100.00
74327;BME280;62745;51.060;13.786;2023-09-12T04:20:54;99822.22;;;15.53;100.00
74327;BME280;62745;51.060;13.786;2023-09-12T04:23:24;99831.22;;;15.47;100.00
74327;BME280;62745;51.060;13.786;2023-09-12T04:25:50;99839.53;;;15.57;100.00
74327;BME280;62745;51.060;13.786;2023-09-12T04:28:15;99832.97;;;15.53;100.00
74327;BME280;62745;51.060;13.786;2023-09-12T04:30:40;99835.09;;;15.51;100.00
74327;BME280;62745;51.060;13.786;2023-09-12T04:33:06;99837.06;;;15.56;100.00
74327;BME280;62745;51.060;13.786;2023-09-12T04:35:34;99837.31;;;15.89;100.00
74327;BME280;62745;51.060;13.786;2023-09-12T04:38:00;99839.41;;;15.87;100.00
74327;BME280;62745;51.060;13.786;2023-09-12T04:40:25;99840.00;;;15.78;100.00
74327;BME280;62745;51.060;13.786;2023-09-12T04:42:51;99829.25;;;15.66;100.00
74327;BME280;62745;51.060;13.786;2023-09-12T04:45:16;99831.97;;;15.66;100.00
74327;BME280;62745;51.060;13.786;2023-09-12T04:47:41;99827.38;;;15.67;100.00
74327;BME280;62745;51.060;13.786;2023-09-12T04:53:28;99833.94;;;15.59;100.00
74327;BME280;62745;51.060;13.786;2023-09-12T04:55:59;99830.28;;;15.53;100.00
74327;BME280;62745;51.060;13.786;2023-09-12T04:58:25;99823.50;;;15.51;100.00
74327;BME280;62745;51.060;13.786;2023-09-12T05:00:50;99825.38;;;15.50;100.00
74327;BME280;62745;51.060;13.786;2023-09-12T05:03:15;99820.00;;;15.50;100.00
74327;BME280;62745;51.060;13.786;2023-09-12T05:05:41;99832.50;;;15.56;100.00
74327;BME280;62745;51.060;13.786;2023-09-12T05:08:06;99835.56;;;15.60;100.00
74327;BME280;62745;51.060;13.786;2023-09-12T05:10:32;99821.50;;;15.58;100.00
74327;BME280;62745;51.060;13.786;2023-09-12T05:12:57;99830.88;;;15.79;100.00
74327;BME280;62745;51.060;13.786;2023-09-12T05:15:23;99831.69;;;15.91;100.00
74327;BME280;62745;51.060;13.786;2023-09-12T05:17:48;99827.81;;;15.99;100.00
74327;BME280;62745;51.060;13.786;2023-09-12T05:20:13;99826.84;;;16.05;100.00
74327;BME280;62745;51.060;13.786;2023-09-12T05:22:38;99825.22;;;16.04;100.00
74327;BME280;62745;51.060;13.786;2023-09-12T05:25:05;99833.06;;;16.05;100.00
74327;BME280;62745;51.060;13.786;2023-09-12T05:27:33;99826.50;;;16.13;100.00
74327;BME280;62745;51.060;13.786;2023-09-12T05:29:58;99823.75;;;16.24;100.00
74327;BME280;62745;51.060;13.786;2023-09-12T05:32:23;99829.69;;;16.27;100.00
74327;BME280;62745;51.060;13.786;2023-09-12T05:34:49;99852.97;;;16.44;100.00
74327;BME280;62745;51.060;13.786;2023-09-12T05:37:15;99838.50;;;16.34;100.00
74327;BME280;62745;51.060;13.786;2023-09-12T05:39:40;99847.00;;;16.42;100.00
74327;BME280;62745;51.060;13.786;2023-09-12T05:42:06;99831.09;;;16.29;100.00
74327;BME280;62745;51.060;13.786;2023-09-12T05:44:32;99846.91;;;16.37;100.00
74327;BME280;62745;51.060;13.786;2023-09-12T05:46:58;99839.19;;;16.29;100.00
74327;BME280;62745;51.060;13.786;2023-09-12T05:49:23;99837.44;;;16.35;100.00
74327;BME280;62745;51.060;13.786;2023-09-12T05:51:48;99839.78;;;16.31;100.00
74327;BME280;62745;51.060;13.786;2023-09-12T05:54:14;99836.38;;;16.36;100.00
74327;BME280;62745;51.060;13.786;2023-09-12T05:56:39;99859.00;;;16.63;100.00
74327;BME280;62745;51.060;13.786;2023-09-12T05:59:05;99852.31;;;16.66;100.00
74327;BME280;62745;51.060;13.786;2023-09-12T06:01:31;99846.09;;;16.65;100.00
74327;BME280;62745;51.060;13.786;2023-09-12T06:03:56;99849.97;;;16.69;100.00
74327;BME280;62745;51.060;13.786;2023-09-12T06:06:22;99858.59;;;16.83;100.00
74327;BME280;62745;51.060;13.786;2023-09-12T06:08:48;99868.47;;;16.94;100.00
74327;BME280;62745;51.060;13.786;2023-09-12T06:11:13;99869.22;;;16.90;100.00
74327;BME280;62745;51.060;13.786;2023-09-12T06:13:38;99875.88;;;16.99;100.00
74327;BME280;62745;51.060;13.786;2023-09-12T06:16:05;99874.56;;;17.01;100.00
74327;BME280;62745;51.060;13.786;2023-09-12T06:18:31;99874.97;;;17.10;100.00
74327;BME280;62745;51.060;13.786;2023-09-12T06:21:00;99875.31;;;17.13;100.00
74327;BME280;62745;51.060;13.786;2023-09-12T06:23:31;99880.38;;;17.27;100.00
74327;BME280;62745;51.060;13.786;2023-09-12T06:25:56;99876.53;;;17.39;100.00
74327;BME280;62745;51.060;13.786;2023-09-12T06:28:30;99873.19;;;17.49;100.00
74327;BME280;62745;51.060;13.786;2023-09-12T06:30:56;99886.28;;;17.57;100.00
74327;BME280;62745;51.060;13.786;2023-09-12T06:33:22;99882.34;;;17.65;100.00
74327;BME280;62745;51.060;13.786;2023-09-12T06:35:51;99871.06;;;17.68;100.00
74327;BME280;62745;51.060;13.786;2023-09-12T06:38:18;99865.38;;;17.86;100.00
74327;BME280;62745;51.060;13.786;2023-09-12T06:40:44;99877.84;;;17.87;100.00
74327;BME280;62745;51.060;13.786;2023-09-12T06:43:09;99864.88;;;17.89;100.00
74327;BME280;62745;51.060;13.786;2023-09-12T06:45:35;99880.50;;;18.04;100.00
74327;BME280;62745;51.060;13.786;2023-09-12T06:48:03;99873.06;;;17.94;100.00
74327;BME280;62745;51.060;13.786;2023-09-12T06:50:29;99869.03;;;17.97;100.00
74327;BME280;62745;51.060;13.786;2023-09-12T06:52:54;99865.84;;;18.00;100.00
74327;BME280;62745;51.060;13.786;2023-09-12T06:55:19;99888.00;;;18.19;100.00
74327;BME280;62745;51.060;13.786;2023-09-12T06:57:45;99880.19;;;18.22;100.00
74327;BME280;62745;51.060;13.786;2023-09-12T07:00:12;99867.63;;;18.33;100.00
74327;BME280;62745;51.060;13.786;2023-09-12T07:02:38;99875.31;;;18.46;100.00
74327;BME280;62745;51.060;13.786;2023-09-12T07:05:03;99863.50;;;18.52;100.00
74327;BME280;62745;51.060;13.786;2023-09-12T07:07:29;99884.53;;;18.67;100.00
74327;BME280;62745;51.060;13.786;2023-09-12T07:09:55;99876.22;;;18.74;100.00
74327;BME280;62745;51.060;13.786;2023-09-12T07:12:21;99873.06;;;18.82;100.00
74327;BME280;62745;51.060;13.786;2023-09-12T07:14:46;99872.88;;;18.93;100.00
74327;BME280;62745;51.060;13.786;2023-09-12T07:17:11;99877.84;;;19.02;100.00
74327;BME280;62745;51.060;13.786;2023-09-12T07:19:36;99889.38;;;19.19;100.00
74327;BME280;62745;51.060;13.786;2023-09-12T07:22:02;99881.00;;;19.20;100.00
74327;BME280;62745;51.060;13.786;2023-09-12T07:24:27;99889.00;;;19.37;100.00
74327;BME280;62745;51.060;13.786;2023-09-12T07:26:53;99889.69;;;19.55;100.00
74327;BME280;62745;51.060;13.786;2023-09-12T07:29:18;99881.88;;;19.63;100.00
74327;BME280;62745;51.060;13.786;2023-09-12T07:31:44;99876.84;;;19.77;100.00
74327;BME280;62745;51.060;13.786;2023-09-12T07:34:09;99886.16;;;19.96;100.00
74327;BME280;62745;51.060;13.786;2023-09-12T07:36:37;99886.28;;;20.17;100.00
74327;BME280;62745;51.060;13.786;2023-09-12T07:39:02;99876.00;;;20.24;100.00
74327;BME280;62745;51.060;13.786;2023-09-12T07:41:28;99875.78;;;20.35;100.00
74327;BME280;62745;51.060;13.786;2023-09-12T07:43:54;99881.25;;;20.46;100.00
74327;BME280;62745;51.060;13.786;2023-09-12T07:46:19;99883.75;;;20.62;100.00
74327;BME280;62745;51.060;13.786;2023-09-12T07:48:45;99885.97;;;20.76;100.00
74327;BME280;62745;51.060;13.786;2023-09-12T07:51:14;99886.03;;;21.01;100.00
74327;BME280;62745;51.060;13.786;2023-09-12T07:53:40;99883.84;;;21.13;100.00
74327;BME280;62745;51.060;13.786;2023-09-12T07:56:07;99890.41;;;21.27;100.00
74327;BME280;62745;51.060;13.786;2023-09-12T07:58:36;99889.88;;;21.41;100.00
74327;BME280;62745;51.060;13.786;2023-09-12T08:01:07;99891.22;;;21.58;100.00
74327;BME280;62745;51.060;13.786;2023-09-12T08:03:36;99892.84;;;21.70;100.00
74327;BME280;62745;51.060;13.786;2023-09-12T08:06:03;99892.00;;;21.84;100.00
74327;BME280;62745;51.060;13.786;2023-09-12T08:08:29;99879.44;;;22.04;100.00
74327;BME280;62745;51.060;13.786;2023-09-12T08:11:20;99877.47;;;22.30;100.00
74327;BME280;62745;51.060;13.786;2023-09-12T08:13:55;99877.09;;;22.57;100.00
74327;BME280;62745;51.060;13.786;2023-09-12T08:16:33;99879.19;;;22.70;100.00
74327;BME280;62745;51.060;13.786;2023-09-12T08:18:58;99882.06;;;22.94;100.00
74327;BME280;62745;51.060;13.786;2023-09-12T08:21:24;99878.13;;;23.10;100.00
74327;BME280;62745;51.060;13.786;2023-09-12T08:23:49;99882.72;;;23.20;90.52
74327;BME280;62745;51.060;13.786;2023-09-12T08:26:15;99887.47;;;23.38;92.28
74327;BME280;62745;51.060;13.786;2023-09-12T08:28:40;99884.53;;;23.63;91.53
74327;BME280;62745;51.060;13.786;2023-09-12T08:31:05;99891.16;;;23.81;94.36
74327;BME280;62745;51.060;13.786;2023-09-12T08:33:30;99892.84;;;24.01;94.05
74327;BME280;62745;51.060;13.786;2023-09-12T08:35:56;99888.59;;;24.19;94.38
74327;BME280;62745;51.060;13.786;2023-09-12T08:38:22;99887.41;;;24.25;95.85
74327;BME280;62745;51.060;13.786;2023-09-12T08:40:49;99882.78;;;24.25;96.15
74327;BME280;62745;51.060;13.786;2023-09-12T08:43:15;99879.88;;;24.41;94.90
74327;BME280;62745;51.060;13.786;2023-09-12T08:45:41;99884.16;;;24.47;93.80
74327;BME280;62745;51.060;13.786;2023-09-12T08:48:10;99897.13;;;24.79;92.53
74327;BME280;62745;51.060;13.786;2023-09-12T08:50:36;99883.75;;;24.77;92.82
74327;BME280;62745;51.060;13.786;2023-09-12T08:53:01;99891.94;;;24.96;90.29
74327;BME280;62745;51.060;13.786;2023-09-12T08:55:28;99880.31;;;25.09;90.20
74327;BME280;62745;51.060;13.786;2023-09-12T08:57:55;99884.22;;;25.22;84.40
74327;BME280;62745;51.060;13.786;2023-09-12T09:00:20;99889.25;;;25.47;83.44
74327;BME280;62745;51.060;13.786;2023-09-12T09:02:48;99882.38;;;25.64;82.46
74327;BME280;62745;51.060;13.786;2023-09-12T09:05:14;99885.00;;;25.74;80.30
74327;BME280;62745;51.060;13.786;2023-09-12T09:07:42;99876.81;;;25.88;79.04
74327;BME280;62745;51.060;13.786;2023-09-12T09:10:14;99874.66;;;26.26;77.12
74327;BME280;62745;51.060;13.786;2023-09-12T09:12:40;99872.66;;;26.45;75.32
74327;BME280;62745;51.060;13.786;2023-09-12T09:15:28;99865.19;;;26.73;73.58
74327;BME280;62745;51.060;13.786;2023-09-12T09:17:55;99859.59;;;26.78;72.73
74327;BME280;62745;51.060;13.786;2023-09-12T09:20:29;99861.78;;;26.90;73.37
74327;BME280;62745;51.060;13.786;2023-09-12T09:23:05;99844.78;;;27.02;70.50
74327;BME280;62745;51.060;13.786;2023-09-12T09:25:32;99844.59;;;27.20;70.12
74327;BME280;62745;51.060;13.786;2023-09-12T09:27:57;99850.31;;;27.24;68.17
74327;BME280;62745;51.060;13.786;2023-09-12T09:30:41;99845.72;;;27.42;67.27
74327;BME280;62745;51.060;13.786;2023-09-12T09:33:06;99845.59;;;27.47;65.96
74327;BME280;62745;51.060;13.786;2023-09-12T09:35:32;99850.34;;;27.55;63.78
74327;BME280;62745;51.060;13.786;2023-09-12T09:37:58;99848.69;;;27.54;59.87
74327;BME280;62745;51.060;13.786;2023-09-12T09:40:24;99845.44;;;27.74;58.14
74327;BME280;62745;51.060;13.786;2023-09-12T09:42:58;99860.72;;;27.98;57.68
74327;BME280;62745;51.060;13.786;2023-09-12T09:45:24;99857.38;;;28.18;55.00
74327;BME280;62745;51.060;13.786;2023-09-12T09:47:50;99835.47;;;28.27;54.26
74327;BME280;62745;51.060;13.786;2023-09-12T09:50:16;99846.16;;;28.37;52.37
74327;BME280;62745;51.060;13.786;2023-09-12T09:52:43;99841.47;;;28.55;52.50
74327;BME280;62745;51.060;13.786;2023-09-12T09:55:12;99837.78;;;28.85;52.56
74327;BME280;62745;51.060;13.786;2023-09-12T09:57:38;99842.03;;;28.91;51.43
74327;BME280;62745;51.060;13.786;2023-09-12T10:00:03;99841.69;;;29.10;50.24
74327;BME280;62745;51.060;13.786;2023-09-12T10:02:35;99840.66;;;29.41;49.56
74327;BME280;62745;51.060;13.786;2023-09-12T10:05:03;99843.97;;;29.72;48.89
74327;BME280;62745;51.060;13.786;2023-09-12T10:07:32;99840.31;;;29.98;48.44
74327;BME280;62745;51.060;13.786;2023-09-12T10:10:00;99843.56;;;30.08;48.28
74327;BME280;62745;51.060;13.786;2023-09-12T10:12:28;99841.75;;;30.12;46.29
74327;BME280;62745;51.060;13.786;2023-09-12T10:14:57;99845.47;;;30.37;45.84
74327;BME280;62745;51.060;13.786;2023-09-12T10:17:27;99842.59;;;30.54;45.38
74327;BME280;62745;51.060;13.786;2023-09-12T10:19:56;99839.13;;;30.66;45.26
74327;BME280;62745;51.060;13.786;2023-09-12T10:22:28;99845.47;;;30.67;40.86
74327;BME280;62745;51.060;13.786;2023-09-12T10:24:57;99841.53;;;30.89;41.25
74327;BME280;62745;51.060;13.786;2023-09-12T10:27:24;99839.56;;;30.77;40.93
74327;BME280;62745;51.060;13.786;2023-09-12T10:29:50;99847.66;;;30.23;39.19
74327;BME280;62745;51.060;13.786;2023-09-12T10:32:18;99846.50;;;30.53;39.79
74327;BME280;62745;51.060;13.786;2023-09-12T10:34:46;99843.78;;;30.74;38.66
74327;BME280;62745;51.060;13.786;2023-09-12T10:37:15;99831.72;;;31.00;39.11
74327;BME280;62745;51.060;13.786;2023-09-12T10:39:43;99836.41;;;31.20;38.56
74327;BME280;62745;51.060;13.786;2023-09-12T10:42:08;99830.13;;;31.32;37.75
74327;BME280;62745;51.060;13.786;2023-09-12T10:44:34;99835.69;;;31.44;37.57
74327;BME280;62745;51.060;13.786;2023-09-12T10:47:00;99831.06;;;31.36;38.10
74327;BME280;62745;51.060;13.786;2023-09-12T10:49:27;99825.53;;;31.36;39.02
74327;BME280;62745;51.060;13.786;2023-09-12T10:51:53;99829.69;;;30.88;39.36
74327;BME280;62745;51.060;13.786;2023-09-12T10:54:35;99819.72;;;30.54;39.24
74327;BME280;62745;51.060;13.786;2023-09-12T10:59:31;99828.91;;;31.54;38.29
74327;BME280;62745;51.060;13.786;2023-09-12T11:02:26;99838.56;;;31.14;39.78
74327;BME280;62745;51.060;13.786;2023-09-12T11:04:52;99824.38;;;31.37;39.33
74327;BME280;62745;51.060;13.786;2023-09-12T11:07:44;99822.34;;;31.46;40.09
74327;BME280;62745;51.060;13.786;2023-09-12T11:10:17;99827.63;;;31.51;39.72
74327;BME280;62745;51.060;13.786;2023-09-12T11:12:46;99828.06;;;31.41;39.10
74327;BME280;62745;51.060;13.786;2023-09-12T11:15:13;99823.97;;;31.47;39.29
74327;BME280;62745;51.060;13.786;2023-09-12T11:17:41;99822.53;;;31.29;39.60
74327;BME280;62745;51.060;13.786;2023-09-12T11:20:07;99822.69;;;31.57;39.55
74327;BME280;62745;51.060;13.786;2023-09-12T11:22:36;99810.88;;;31.68;38.19
74327;BME280;62745;51.060;13.786;2023-09-12T11:25:25;99806.63;;;32.08;38.27
74327;BME280;62745;51.060;13.786;2023-09-12T11:30:19;99806.84;;;32.39;37.98
74327;BME280;62745;51.060;13.786;2023-09-12T11:36:06;99799.03;;;32.05;37.58
74327;BME280;62745;51.060;13.786;2023-09-12T11:38:37;99795.00;;;31.90;38.46
74327;BME280;62745;51.060;13.786;2023-09-12T11:41:03;99798.78;;;32.74;36.76
74327;BME280;62745;51.060;13.786;2023-09-12T11:43:28;99794.06;;;32.47;36.88
74327;BME280;62745;51.060;13.786;2023-09-12T11:45:55;99788.41;;;32.83;35.94
74327;BME280;62745;51.060;13.786;2023-09-12T11:48:21;99789.97;;;32.56;36.90
74327;BME280;62745;51.060;13.786;2023-09-12T11:50:54;99785.63;;;33.11;35.43
74327;BME280;62745;51.060;13.786;2023-09-12T11:53:32;99775.59;;;33.66;35.52
74327;BME280;62745;51.060;13.786;2023-09-12T11:56:00;99776.44;;;34.18;34.34
74327;BME280;62745;51.060;13.786;2023-09-12T11:58:26;99781.41;;;34.63;33.79
74327;BME280;62745;51.060;13.786;2023-09-12T12:00:57;99789.38;;;34.29;32.36
74327;BME280;62745;51.060;13.786;2023-09-12T12:03:24;99769.13;;;34.83;32.19
74327;BME280;62745;51.060;13.786;2023-09-12T12:05:50;99780.16;;;34.99;31.94
74327;BME280;62745;51.060;13.786;2023-09-12T12:08:17;99774.81;;;34.52;32.58
74327;BME280;62745;51.060;13.786;2023-09-12T12:10:43;99772.16;;;35.17;31.14
74327;BME280;62745;51.060;13.786;2023-09-12T12:13:18;99760.00;;;35.44;30.82
74327;BME280;62745;51.060;13.786;2023-09-12T12:15:43;99767.22;;;35.98;29.97
74327;BME280;62745;51.060;13.786;2023-09-12T12:18:12;99757.78;;;35.80;30.57
74327;BME280;62745;51.060;13.786;2023-09-12T12:20:37;99757.41;;;36.34;29.66
74327;BME280;62745;51.060;13.786;2023-09-12T12:23:03;99752.09;;;35.73;29.18
74327;BME280;62745;51.060;13.786;2023-09-12T12:25:32;99745.50;;;35.58;29.21
74327;BME280;62745;51.060;13.786;2023-09-12T12:27:58;99749.88;;;35.59;28.83
74327;BME280;62745;51.060;13.786;2023-09-12T12:30:23;99756.47;;;36.27;27.68
74327;BME280;62745;51.060;13.786;2023-09-12T12:32:48;99755.22;;;36.21;27.20
74327;BME280;62745;51.060;13.786;2023-09-12T12:35:22;99758.91;;;36.58;26.49
74327;BME280;62745;51.060;13.786;2023-09-12T12:37:54;99748.25;;;36.97;26.03
74327;BME280;62745;51.060;13.786;2023-09-12T12:40:21;99742.16;;;36.25;27.28
74327;BME280;62745;51.060;13.786;2023-09-12T12:42:47;99746.75;;;37.99;26.42
74327;BME280;62745;51.060;13.786;2023-09-12T12:45:13;99737.63;;;39.00;24.81
74327;BME280;62745;51.060;13.786;2023-09-12T12:47:38;99736.00;;;38.95;24.68
74327;BME280;62745;51.060;13.786;2023-09-12T12:53:41;99735.56;;;40.25;22.98
74327;BME280;62745;51.060;13.786;2023-09-12T12:56:07;99732.34;;;40.30;22.84
74327;BME280;62745;51.060;13.786;2023-09-12T13:01:55;99719.19;;;40.23;22.67
74327;BME280;62745;51.060;13.786;2023-09-12T13:04:20;99729.16;;;38.71;22.70
74327;BME280;62745;51.060;13.786;2023-09-12T13:06:46;99718.00;;;40.14;21.13
74327;BME280;62745;51.060;13.786;2023-09-12T13:09:11;99716.50;;;39.27;22.23
74327;BME280;62745;51.060;13.786;2023-09-12T13:11:37;99720.16;;;40.76;21.57
74327;BME280;62745;51.060;13.786;2023-09-12T13:14:05;99708.09;;;39.74;21.97
74327;BME280;62745;51.060;13.786;2023-09-12T13:16:40;99716.50;;;39.49;22.35
74327;BME280;62745;51.060;13.786;2023-09-12T13:19:06;99714.44;;;38.85;22.74
74327;BME280;62745;51.060;13.786;2023-09-12T13:21:31;99710.53;;;39.15;22.32
74327;BME280;62745;51.060;13.786;2023-09-12T13:24:00;99715.31;;;39.64;22.21
74327;BME280;62745;51.060;13.786;2023-09-12T13:26:25;99715.25;;;39.96;21.26
74327;BME280;62745;51.060;13.786;2023-09-12T13:28:50;99712.06;;;40.05;21.45
74327;BME280;62745;51.060;13.786;2023-09-12T13:31:37;99706.09;;;39.46;21.04
74327;BME280;62745;51.060;13.786;2023-09-12T13:34:02;99708.28;;;40.54;20.91
74327;BME280;62745;51.060;13.786;2023-09-12T13:36:28;99704.47;;;39.87;20.62
74327;BME280;62745;51.060;13.786;2023-09-12T13:38:56;99704.84;;;40.07;21.30
74327;BME280;62745;51.060;13.786;2023-09-12T13:41:21;99707.22;;;40.09;20.97
74327;BME280;62745;51.060;13.786;2023-09-12T13:43:50;99703.84;;;38.25;22.81
74327;BME280;62745;51.060;13.786;2023-09-12T13:46:15;99683.88;;;37.54;22.75
74327;BME280;62745;51.060;13.786;2023-09-12T13:48:41;99696.09;;;36.94;23.53
74327;BME280;62745;51.060;13.786;2023-09-12T13:51:06;99685.94;;;37.64;22.97
74327;BME280;62745;51.060;13.786;2023-09-12T13:53:32;99698.28;;;38.25;23.13
74327;BME280;62745;51.060;13.786;2023-09-12T13:55:57;99697.91;;;37.17;24.00
74327;BME280;62745;51.060;13.786;2023-09-12T13:58:23;99690.94;;;36.96;23.67
74327;BME280;62745;51.060;13.786;2023-09-12T14:00:49;99694.53;;;37.45;23.23
74327;BME280;62745;51.060;13.786;2023-09-12T14:03:14;99675.44;;;38.05;22.48
74327;BME280;62745;51.060;13.786;2023-09-12T14:05:40;99677.75;;;38.83;20.64
74327;BME280;62745;51.060;13.786;2023-09-12T14:08:05;99684.81;;;38.52;21.56
74327;BME280;62745;51.060;13.786;2023-09-12T14:10:31;99677.44;;;38.12;21.72
74327;BME280;62745;51.060;13.786;2023-09-12T14:12:56;99686.38;;;38.42;21.41